Time;durP1;ratioP1;P1;durP2;ratioP2;P2;SDS_P1;SDS_P2;PMS_P1;PMS_P2;Temp;Humidity;BMP_temperature;BMP_pressure;BME280_temperature;BME280_humidity;BME280_pressure;Samples;Min_cycle;Max_cycle;Signal;HPM_P1;HPM_P2
2023/08/01 00:00:33;;;;;;;3.97;1.80;;;16.90;99.90;;;;;;5072246;28;20500;-51
2023/08/01 00:02:59;;;;;;;2.45;0.80;;;16.90;99.90;;;;;;5072003;28;20028;-50
2023/08/01 00:05:25;;;;;;;1.25;0.57;;;16.80;99.90;;;;;;5071359;28;20512;-51
2023/08/01 00:07:51;;;;;;;1.40;0.70;;;16.60;99.90;;;;;;5070557;28;20511;-52
2023/08/01 00:10:17;;;;;;;3.33;0.90;;;16.50;99.90;;;;;;5071687;28;20431;-54
2023/08/01 00:12:42;;;;;;;2.70;0.85;;;16.40;99.90;;;;;;5071353;28;20016;-55
2023/08/01 00:15:09;;;;;;;1.33;0.70;;;16.40;99.90;;;;;;5071376;28;20025;-55
2023/08/01 00:17:34;;;;;;;1.02;0.50;;;16.40;99.90;;;;;;5071898;28;20374;-54
2023/08/01 00:20:01;;;;;;;0.95;0.70;;;16.30;99.90;;;;;;5071538;28;20031;-55
2023/08/01 00:22:27;;;;;;;1.25;0.68;;;16.20;99.90;;;;;;5071325;28;20032;-55
2023/08/01 00:24:52;;;;;;;2.35;0.55;;;16.20;99.90;;;;;;5071311;28;20095;-54
2023/08/01 00:27:18;;;;;;;2.05;0.70;;;16.20;99.90;;;;;;5071833;28;20075;-55
2023/08/01 00:29:45;;;;;;;1.42;0.65;;;16.20;99.90;;;;;;5071179;28;20082;-54
2023/08/01 00:32:11;;;;;;;1.50;0.70;;;16.10;99.90;;;;;;5070927;28;20025;-54
2023/08/01 00:34:37;;;;;;;2.05;0.77;;;16.10;99.90;;;;;;5069855;28;20039;-55
2023/08/01 00:37:03;;;;;;;2.42;0.80;;;16.10;99.90;;;;;;5070124;28;20028;-54
2023/08/01 00:39:28;;;;;;;4.75;0.88;;;16.10;99.90;;;;;;5069970;28;20036;-55
2023/08/01 00:41:54;;;;;;;1.52;0.70;;;16.10;99.90;;;;;;5053250;28;20444;-54
2023/08/01 00:44:20;;;;;;;2.50;0.90;;;16.10;99.90;;;;;;5070952;28;20430;-54
2023/08/01 00:46:45;;;;;;;3.20;0.70;;;16.10;99.90;;;;;;5071351;28;20036;-54
2023/08/01 00:49:13;;;;;;;2.10;0.98;;;16.10;99.90;;;;;;5071081;28;20024;-53
2023/08/01 00:51:38;;;;;;;1.90;0.90;;;16.10;99.90;;;;;;5070981;28;20369;-52
2023/08/01 00:54:04;;;;;;;1.08;0.65;;;16.10;99.90;;;;;;5070851;28;20085;-54
2023/08/01 00:56:30;;;;;;;1.50;0.60;;;16.10;99.90;;;;;;5069668;28;20035;-54
2023/08/01 00:58:55;;;;;;;3.78;0.90;;;16.20;99.90;;;;;;5069662;28;20039;-54
2023/08/01 01:01:21;;;;;;;2.60;1.33;;;16.20;99.90;;;;;;5070888;28;20043;-55
2023/08/01 01:03:48;;;;;;;1.52;0.80;;;16.10;99.90;;;;;;5070664;28;20062;-54
2023/08/01 01:06:16;;;;;;;1.67;0.85;;;16.20;99.90;;;;;;5069488;28;20492;-55
2023/08/01 01:08:42;;;;;;;0.95;0.70;;;16.20;99.90;;;;;;5071292;28;20036;-54
2023/08/01 01:11:08;;;;;;;1.20;0.73;;;16.20;99.90;;;;;;5069749;28;20038;-55
2023/08/01 01:13:34;;;;;;;2.35;1.23;;;16.20;99.90;;;;;;5069411;28;20032;-55
2023/08/01 01:16:00;;;;;;;1.33;0.73;;;16.20;99.90;;;;;;5070838;28;20031;-54
2023/08/01 01:18:26;;;;;;;2.05;0.80;;;16.20;99.90;;;;;;5071093;28;20025;-53
2023/08/01 01:20:51;;;;;;;2.38;1.00;;;16.20;99.90;;;;;;5069984;28;20400;-55
2023/08/01 01:23:20;;;;;;;2.67;0.95;;;16.20;99.90;;;;;;5069384;28;20056;-54
2023/08/01 01:25:47;;;;;;;1.70;0.90;;;16.20;99.90;;;;;;5069708;28;20032;-55
2023/08/01 01:28:15;;;;;;;2.50;1.10;;;16.20;99.90;;;;;;5070756;28;20536;-53
2023/08/01 01:30:43;;;;;;;3.45;1.10;;;16.20;99.90;;;;;;5070996;28;20412;-55
2023/08/01 01:33:09;;;;;;;1.60;0.82;;;16.30;99.90;;;;;;5069395;28;20024;-55
2023/08/01 01:35:36;;;;;;;4.80;0.93;;;16.30;99.90;;;;;;5069571;28;20029;-53
2023/08/01 01:38:05;;;;;;;1.83;1.20;;;16.30;99.90;;;;;;5070921;28;20086;-55
2023/08/01 01:40:31;;;;;;;1.60;1.02;;;16.30;99.90;;;;;;5069715;28;20132;-55
2023/08/01 01:42:58;;;;;;;2.58;1.30;;;16.30;99.90;;;;;;5069526;28;20458;-55
2023/08/01 01:45:24;;;;;;;3.88;1.50;;;16.30;99.90;;;;;;5069375;28;20039;-53
2023/08/01 01:47:49;;;;;;;5.30;1.92;;;16.20;99.90;;;;;;5069478;28;20037;-55
2023/08/01 01:50:15;;;;;;;3.20;1.60;;;16.10;99.90;;;;;;5069708;28;20608;-55
2023/08/01 01:52:41;;;;;;;3.28;1.60;;;16.00;99.90;;;;;;5070441;28;20036;-55
2023/08/01 01:55:07;;;;;;;3.22;1.55;;;15.90;99.90;;;;;;5069411;28;20080;-55
2023/08/01 01:57:36;;;;;;;3.28;1.20;;;15.90;99.90;;;;;;5069675;28;20393;-53
2023/08/01 02:00:05;;;;;;;1.90;1.08;;;15.90;99.90;;;;;;5069402;28;20024;-55
2023/08/01 02:02:38;;;;;;;5.55;1.55;;;15.80;99.90;;;;;;5069199;28;20025;-55
2023/08/01 02:05:04;;;;;;;2.25;1.30;;;15.80;99.90;;;;;;5069051;28;20032;-53
2023/08/01 02:07:30;;;;;;;3.20;1.73;;;15.70;99.90;;;;;;5070552;28;20066;-52
2023/08/01 02:09:56;;;;;;;3.75;1.60;;;15.70;99.90;;;;;;5069231;28;20076;-54
2023/08/01 02:12:22;;;;;;;2.50;1.45;;;15.60;99.90;;;;;;5052185;28;20031;-52
2023/08/01 02:14:47;;;;;;;3.47;1.60;;;15.60;99.90;;;;;;5069876;28;20477;-54
2023/08/01 02:17:13;;;;;;;2.42;1.63;;;15.60;99.90;;;;;;5074157;28;20024;-54
2023/08/01 02:19:38;;;;;;;2.75;1.50;;;15.60;99.90;;;;;;5074055;28;20040;-52
2023/08/01 02:22:04;;;;;;;5.75;2.00;;;15.50;99.90;;;;;;5072567;28;20032;-52
2023/08/01 02:24:30;;;;;;;3.67;1.77;;;15.60;99.90;;;;;;5072381;28;20036;-53
2023/08/01 02:26:56;;;;;;;2.92;1.73;;;15.70;99.90;;;;;;5072582;28;20032;-51
2023/08/01 02:29:21;;;;;;;4.68;2.22;;;15.60;99.90;;;;;;5072444;28;20036;-54
2023/08/01 02:31:47;;;;;;;4.60;2.33;;;15.60;99.90;;;;;;5072140;28;20120;-54
2023/08/01 02:34:13;;;;;;;5.07;2.60;;;15.60;99.90;;;;;;5073225;28;20025;-53
2023/08/01 02:36:40;;;;;;;5.40;2.83;;;15.60;99.90;;;;;;5072309;28;20029;-51
2023/08/01 02:39:06;;;;;;;6.28;2.75;;;15.60;99.90;;;;;;5072403;28;20032;-51
2023/08/01 02:41:32;;;;;;;6.22;3.25;;;15.60;99.90;;;;;;5072042;28;20598;-52
2023/08/01 02:43:57;;;;;;;7.32;3.97;;;15.70;99.90;;;;;;5073401;28;20107;-53
2023/08/01 02:46:23;;;;;;;6.18;3.47;;;15.70;99.90;;;;;;5073361;28;20040;-52
2023/08/01 02:48:49;;;;;;;6.20;3.50;;;15.70;99.90;;;;;;5072039;28;20112;-53
2023/08/01 02:51:14;;;;;;;8.52;4.53;;;15.70;99.90;;;;;;5072070;28;20208;-53
2023/08/01 02:53:41;;;;;;;8.52;4.63;;;15.70;99.90;;;;;;5073369;28;20051;-51
2023/08/01 02:56:08;;;;;;;8.02;4.55;;;15.70;99.90;;;;;;5071754;28;20396;-54
2023/08/01 02:58:34;;;;;;;9.63;5.07;;;15.70;99.90;;;;;;5073173;28;20060;-51
2023/08/01 03:01:01;;;;;;;11.70;5.18;;;15.70;99.90;;;;;;5073252;28;20036;-54
2023/08/01 03:03:26;;;;;;;9.95;5.30;;;15.60;99.90;;;;;;5071478;28;20033;-54
2023/08/01 03:05:52;;;;;;;12.32;5.95;;;15.60;99.90;;;;;;5071536;28;20039;-54
2023/08/01 03:08:18;;;;;;;13.00;5.82;;;15.60;99.90;;;;;;5071623;28;20029;-50
2023/08/01 03:10:44;;;;;;;13.52;6.50;;;15.70;99.90;;;;;;5071743;28;20028;-54
2023/08/01 03:13:10;;;;;;;13.88;6.85;;;15.60;99.90;;;;;;5072591;28;20501;-50
2023/08/01 03:15:37;;;;;;;13.85;6.40;;;15.60;99.90;;;;;;5072614;28;20039;-53
2023/08/01 03:18:03;;;;;;;12.73;6.68;;;15.60;99.90;;;;;;5072764;28;20400;-49
2023/08/01 03:20:29;;;;;;;14.40;6.35;;;15.60;99.90;;;;;;5071410;28;20056;-53
2023/08/01 03:22:55;;;;;;;15.80;7.30;;;15.50;99.90;;;;;;5072526;28;20451;-54
2023/08/01 03:25:20;;;;;;;12.75;6.40;;;15.50;99.90;;;;;;5071090;28;20040;-52
2023/08/01 03:27:46;;;;;;;15.73;7.28;;;15.50;99.90;;;;;;5088065;28;20028;-54
2023/08/01 03:30:12;;;;;;;12.55;6.60;;;15.50;99.90;;;;;;5085090;28;20032;-52
2023/08/01 03:32:37;;;;;;;13.13;6.55;;;15.50;99.90;;;;;;5079888;28;20617;-52
2023/08/01 03:35:06;;;;;;;15.13;6.63;;;15.50;99.90;;;;;;5084505;28;20450;-50
2023/08/01 03:37:32;;;;;;;11.10;6.13;;;15.50;99.90;;;;;;5078339;28;20441;-54
2023/08/01 03:39:58;;;;;;;11.13;5.80;;;15.40;99.90;;;;;;5074285;28;20520;-53
2023/08/01 03:42:24;;;;;;;12.80;6.30;;;15.40;99.90;;;;;;5088256;28;20036;-54
2023/08/01 03:44:49;;;;;;;12.52;6.35;;;15.50;99.90;;;;;;5073098;28;20051;-49
2023/08/01 03:47:15;;;;;;;13.10;6.93;;;15.50;99.90;;;;;;5073766;28;20017;-53
2023/08/01 03:49:40;;;;;;;14.95;5.75;;;15.50;99.90;;;;;;5085459;28;20028;-53
2023/08/01 03:52:07;;;;;;;15.10;5.88;;;15.50;99.90;;;;;;5086184;28;20036;-54
2023/08/01 03:54:32;;;;;;;13.10;6.47;;;15.60;99.90;;;;;;5074324;28;20024;-50
2023/08/01 03:56:58;;;;;;;10.35;5.47;;;15.60;99.90;;;;;;5072001;28;20024;-49
2023/08/01 03:59:24;;;;;;;10.50;5.65;;;15.60;99.90;;;;;;5078298;28;20020;-53
2023/08/01 04:01:50;;;;;;;14.18;6.00;;;15.70;99.90;;;;;;5080356;28;20035;-53
2023/08/01 04:04:16;;;;;;;11.35;5.78;;;15.60;99.90;;;;;;5080120;28;20078;-51
2023/08/01 04:06:42;;;;;;;13.50;6.57;;;15.60;99.90;;;;;;5083754;28;20099;-54
2023/08/01 04:09:07;;;;;;;13.65;6.03;;;15.70;99.90;;;;;;5079880;28;20181;-52
2023/08/01 04:11:33;;;;;;;15.00;6.45;;;15.70;99.90;;;;;;5085312;28;20017;-53
2023/08/01 04:13:59;;;;;;;12.07;5.97;;;15.70;99.90;;;;;;5083570;28;20021;-50
2023/08/01 04:16:24;;;;;;;16.73;7.38;;;15.70;99.90;;;;;;5086706;28;20016;-53
2023/08/01 04:18:50;;;;;;;11.40;6.65;;;15.70;99.90;;;;;;5081626;28;20358;-51
2023/08/01 04:21:16;;;;;;;12.30;6.28;;;15.70;99.90;;;;;;5082628;28;20097;-53
2023/08/01 04:23:42;;;;;;;13.85;7.85;;;15.60;99.90;;;;;;5083469;28;20036;-52
2023/08/01 04:26:07;;;;;;;13.98;6.13;;;15.60;99.90;;;;;;5081887;28;20422;-54
2023/08/01 04:28:34;;;;;;;15.52;7.05;;;15.50;99.90;;;;;;5087653;28;20070;-53
2023/08/01 04:31:00;;;;;;;16.20;7.45;;;15.50;99.90;;;;;;5089240;28;20028;-51
2023/08/01 04:33:25;;;;;;;18.15;6.78;;;15.50;99.90;;;;;;5085170;28;20020;-54
2023/08/01 04:35:51;;;;;;;13.23;6.20;;;15.50;99.90;;;;;;5077383;28;20396;-54
2023/08/01 04:38:17;;;;;;;17.60;6.85;;;15.50;99.90;;;;;;5072784;28;20052;-53
2023/08/01 04:40:43;;;;;;;17.98;6.47;;;15.50;99.90;;;;;;5083917;28;20032;-53
2023/08/01 04:43:09;;;;;;;13.55;6.95;;;15.50;99.90;;;;;;5080615;28;20027;-54
2023/08/01 04:45:35;;;;;;;15.63;7.20;;;15.50;99.90;;;;;;5078792;28;20451;-49
2023/08/01 04:48:00;;;;;;;15.13;7.45;;;15.50;99.90;;;;;;5078532;28;20038;-52
2023/08/01 04:50:26;;;;;;;16.48;7.88;;;15.50;99.90;;;;;;5084522;28;20028;-53
2023/08/01 04:52:52;;;;;;;16.83;7.72;;;15.50;99.90;;;;;;5085017;28;20021;-54
2023/08/01 04:55:17;;;;;;;16.15;7.05;;;15.50;99.90;;;;;;5080520;28;20024;-54
2023/08/01 04:57:43;;;;;;;16.98;7.63;;;15.60;99.90;;;;;;5080201;28;20044;-51
2023/08/01 05:00:09;;;;;;;16.73;8.57;;;15.60;99.90;;;;;;5088947;28;20519;-54
2023/08/01 05:02:35;;;;;;;18.05;8.63;;;15.70;99.90;;;;;;5081967;28;20028;-53
2023/08/01 05:05:00;;;;;;;19.23;8.30;;;15.60;99.90;;;;;;5077163;28;20047;-54
2023/08/01 05:07:26;;;;;;;16.10;8.07;;;15.60;99.90;;;;;;5083704;28;20020;-52
2023/08/01 05:09:52;;;;;;;18.13;8.55;;;15.60;99.90;;;;;;5077398;28;20473;-50
2023/08/01 05:12:17;;;;;;;18.90;8.95;;;15.60;99.90;;;;;;5080178;28;20016;-54
2023/08/01 05:14:43;;;;;;;18.45;9.15;;;15.60;99.90;;;;;;5080042;28;20420;-54
2023/08/01 05:17:08;;;;;;;17.25;9.15;;;15.60;99.90;;;;;;5085522;28;20060;-51
2023/08/01 05:19:34;;;;;;;19.42;8.68;;;15.60;99.90;;;;;;5076220;28;20020;-50
2023/08/01 05:22:00;;;;;;;19.48;9.40;;;15.60;99.90;;;;;;5073375;28;20036;-52
2023/08/01 05:24:25;;;;;;;17.85;8.68;;;15.70;99.90;;;;;;5079506;28;20028;-51
2023/08/01 05:26:51;;;;;;;18.02;8.98;;;15.70;99.90;;;;;;5082167;28;20035;-53
2023/08/01 05:29:16;;;;;;;19.20;8.55;;;15.80;99.90;;;;;;5085823;28;20429;-52
2023/08/01 05:31:42;;;;;;;16.55;8.73;;;15.70;99.90;;;;;;5074886;28;20063;-51
2023/08/01 05:34:08;;;;;;;24.58;12.60;;;15.70;99.90;;;;;;5084473;28;20025;-49
2023/08/01 05:36:33;;;;;;;27.92;13.73;;;15.70;99.90;;;;;;5084624;28;20039;-49
2023/08/01 05:38:59;;;;;;;19.20;9.25;;;15.70;99.90;;;;;;5073879;28;20194;-50
2023/08/01 05:41:24;;;;;;;21.92;9.45;;;15.80;99.90;;;;;;5084333;28;20388;-50
2023/08/01 05:43:50;;;;;;;18.30;8.13;;;15.80;99.90;;;;;;5083914;28;20035;-47
2023/08/01 05:46:16;;;;;;;19.77;8.82;;;15.80;99.90;;;;;;5082747;28;20031;-49
2023/08/01 05:48:41;;;;;;;19.98;9.68;;;15.80;99.90;;;;;;5086509;28;20472;-48
2023/08/01 05:51:07;;;;;;;18.17;9.15;;;15.80;99.90;;;;;;5087826;28;20020;-49
2023/08/01 05:53:33;;;;;;;16.27;8.50;;;15.80;99.90;;;;;;5083943;28;20023;-49
2023/08/01 05:55:58;;;;;;;19.77;8.98;;;15.80;99.90;;;;;;5081581;28;20122;-53
2023/08/01 05:58:24;;;;;;;21.38;8.15;;;15.80;99.90;;;;;;5077807;28;20032;-54
2023/08/01 06:00:50;;;;;;;20.25;8.48;;;15.90;99.90;;;;;;5086540;28;20247;-52
2023/08/01 06:03:16;;;;;;;18.55;8.57;;;15.90;99.90;;;;;;5092107;28;20122;-54
2023/08/01 06:05:42;;;;;;;16.42;8.07;;;15.90;99.90;;;;;;5083164;28;20051;-53
2023/08/01 06:08:08;;;;;;;22.15;8.82;;;16.00;99.90;;;;;;5092081;28;20411;-52
2023/08/01 06:10:35;;;;;;;21.70;8.80;;;16.00;99.90;;;;;;5085939;28;20131;-53
2023/08/01 06:13:01;;;;;;;17.10;7.90;;;16.00;99.90;;;;;;5089650;28;20049;-52
2023/08/01 06:15:26;;;;;;;17.88;8.82;;;16.00;99.90;;;;;;5089381;28;20093;-48
2023/08/01 06:17:53;;;;;;;20.08;8.73;;;16.10;99.90;;;;;;5080119;28;20412;-49
2023/08/01 06:20:19;;;;;;;17.45;8.02;;;16.10;99.90;;;;;;5092427;28;20099;-51
2023/08/01 06:22:44;;;;;;;17.95;8.52;;;16.20;99.90;;;;;;5086133;28;20058;-52
2023/08/01 06:25:10;;;;;;;17.23;8.07;;;16.30;99.90;;;;;;5083139;28;20029;-51
2023/08/01 06:27:37;;;;;;;17.60;8.85;;;16.30;99.90;;;;;;5090836;28;20176;-52
2023/08/01 06:30:02;;;;;;;19.00;7.85;;;16.30;99.90;;;;;;5083828;28;20028;-48
2023/08/01 06:32:28;;;;;;;16.15;7.60;;;16.40;99.90;;;;;;5087900;28;20020;-51
2023/08/01 06:34:54;;;;;;;14.95;6.70;;;16.50;99.90;;;;;;5088868;28;20028;-52
2023/08/01 06:37:19;;;;;;;17.20;7.30;;;16.50;99.90;;;;;;5091919;28;20032;-53
2023/08/01 06:39:45;;;;;;;11.27;6.20;;;16.50;99.90;;;;;;5085261;28;20035;-53
2023/08/01 06:42:10;;;;;;;12.60;6.88;;;16.50;99.90;;;;;;5076314;28;20111;-52
2023/08/01 06:44:36;;;;;;;14.32;5.93;;;16.40;99.90;;;;;;5077575;28;20038;-54
2023/08/01 06:47:02;;;;;;;15.05;5.80;;;16.40;99.90;;;;;;5080472;28;20392;-53
2023/08/01 06:49:28;;;;;;;11.13;5.68;;;16.40;99.90;;;;;;5088910;28;20110;-49
2023/08/01 06:51:53;;;;;;;12.95;5.50;;;16.40;99.90;;;;;;5083929;28;20039;-51
2023/08/01 06:54:19;;;;;;;17.08;5.95;;;16.40;99.90;;;;;;5077688;28;20082;-51
2023/08/01 06:56:47;;;;;;;10.30;5.00;;;16.50;99.90;;;;;;5060164;28;20033;-52
2023/08/01 06:59:16;;;;;;;15.70;5.65;;;16.60;99.90;;;;;;5066585;28;20036;-51
2023/08/01 07:01:43;;;;;;;;;;;16.60;99.90;;;;;;5068445;28;20032;-53
2023/08/01 07:04:12;;;;;;;10.88;5.53;;;16.60;99.90;;;;;;5081439;28;19993;-54
2023/08/01 07:06:39;;;;;;;;;;;16.60;99.90;;;;;;5090553;28;20100;-53
2023/08/01 07:09:05;;;;;;;25.52;14.07;;;16.60;99.90;;;;;;5086164;28;19912;-54
2023/08/01 07:11:31;;;;;;;29.88;14.60;;;16.80;99.90;;;;;;5086392;28;20314;-52
2023/08/01 07:13:56;;;;;;;13.57;7.15;;;16.90;99.90;;;;;;5086071;28;20016;-50
2023/08/01 07:16:22;;;;;;;14.90;6.53;;;17.00;99.90;;;;;;5083910;28;20449;-52
2023/08/01 07:18:50;;;;;;;10.60;5.15;;;17.00;99.90;;;;;;5087489;28;20032;-54
2023/08/01 07:21:17;;;;;;;14.55;4.90;;;17.00;99.90;;;;;;5082355;28;20032;-53
2023/08/01 07:23:43;;;;;;;13.73;5.18;;;17.00;99.90;;;;;;5083351;28;20032;-53
2023/08/01 07:26:08;;;;;;;9.15;4.88;;;16.90;99.90;;;;;;5086816;28;20103;-54
2023/08/01 07:28:34;;;;;;;13.48;4.40;;;17.00;99.90;;;;;;5087074;28;20034;-51
2023/08/01 07:31:05;;;;;;;11.23;4.75;;;16.90;99.90;;;;;;5085348;28;20400;-54
2023/08/01 07:33:31;;;;;;;9.70;4.70;;;17.00;99.90;;;;;;5080213;28;20146;-55
2023/08/01 07:35:57;;;;;;;9.40;4.90;;;16.90;99.90;;;;;;5080128;28;20112;-53
2023/08/01 07:38:23;;;;;;;9.45;4.60;;;16.80;99.90;;;;;;5088635;28;20111;-54
2023/08/01 07:40:49;;;;;;;10.75;4.25;;;16.80;99.90;;;;;;5086886;28;20572;-52
2023/08/01 07:43:15;;;;;;;10.73;4.70;;;16.80;99.90;;;;;;5080214;28;20039;-54
2023/08/01 07:45:40;;;;;;;9.13;4.82;;;16.80;99.90;;;;;;5086992;28;20676;-52
2023/08/01 07:48:06;;;;;;;13.75;5.78;;;16.70;99.90;;;;;;5086939;28;20058;-52
2023/08/01 07:50:32;;;;;;;10.32;4.63;;;16.70;99.90;;;;;;5088476;28;20023;-52
2023/08/01 07:52:58;;;;;;;9.40;4.95;;;16.80;99.90;;;;;;5079430;28;20476;-54
2023/08/01 07:55:23;;;;;;;12.82;5.22;;;16.80;99.90;;;;;;5088275;28;20024;-54
2023/08/01 07:57:49;;;;;;;8.88;5.00;;;16.90;99.90;;;;;;5085548;28;20479;-50
2023/08/01 08:00:15;;;;;;;9.02;4.38;;;17.10;99.90;;;;;;5087428;28;20503;-54
2023/08/01 08:02:42;;;;;;;9.80;4.63;;;17.30;99.90;;;;;;5087306;28;20079;-52
2023/08/01 08:05:09;;;;;;;11.18;5.38;;;17.40;99.90;;;;;;5089739;28;20048;-54
2023/08/01 08:07:34;;;;;;;11.48;4.47;;;17.40;99.90;;;;;;5087231;28;20028;-54
2023/08/01 08:10:00;;;;;;;13.18;4.95;;;17.40;99.90;;;;;;5082150;28;20042;-52
2023/08/01 08:12:26;;;;;;;9.73;4.78;;;17.50;99.90;;;;;;5088448;28;20103;-53
2023/08/01 08:14:51;;;;;;;10.80;5.03;;;17.50;99.90;;;;;;5089191;28;20385;-54
2023/08/01 08:17:17;;;;;;;8.68;4.93;;;17.70;99.90;;;;;;5085643;28;20070;-55
2023/08/01 08:19:43;;;;;;;8.25;5.00;;;17.70;99.90;;;;;;5078027;28;20441;-53
2023/08/01 08:22:08;;;;;;;10.05;4.80;;;17.80;99.90;;;;;;5087873;28;20032;-54
2023/08/01 08:24:34;;;;;;;9.27;4.38;;;17.70;99.90;;;;;;5088404;28;20518;-53
2023/08/01 08:27:00;;;;;;;10.77;4.80;;;17.70;99.90;;;;;;5086156;28;20047;-54
2023/08/01 08:29:26;;;;;;;8.93;4.13;;;17.70;99.90;;;;;;5082588;28;20024;-54
2023/08/01 08:31:51;;;;;;;9.30;5.00;;;17.70;99.90;;;;;;5078005;28;20032;-53
2023/08/01 08:34:17;;;;;;;8.50;4.28;;;17.70;99.90;;;;;;5081887;28;20020;-52
2023/08/01 08:36:42;;;;;;;9.85;4.43;;;17.80;99.90;;;;;;5086874;28;20103;-54
2023/08/01 08:39:08;;;;;;;8.90;3.92;;;17.80;99.90;;;;;;5084828;28;20036;-54
2023/08/01 08:41:49;;;;;;;9.27;3.95;;;17.70;99.90;;;;;;5070325;28;20021;-53
2023/08/01 08:44:17;;;;;;;8.93;3.92;;;17.70;99.90;;;;;;5072463;28;20111;-52
2023/08/01 08:46:45;;;;;;;8.95;4.30;;;17.70;99.90;;;;;;5088029;28;20411;-53
2023/08/01 08:49:11;;;;;;;8.63;3.88;;;17.80;99.90;;;;;;5088327;28;20078;-54
2023/08/01 08:51:38;;;;;;;7.82;4.00;;;17.80;99.90;;;;;;5089069;28;20038;-54
2023/08/01 08:54:05;;;;;;;9.07;4.18;;;17.90;99.90;;;;;;5086425;28;20480;-53
2023/08/01 08:56:31;;;;;;;13.57;7.45;;;18.00;99.90;;;;;;5081695;28;20111;-54
2023/08/01 08:58:58;;;;;;;13.68;6.72;;;18.20;99.90;;;;;;5078369;28;20116;-54
2023/08/01 09:01:24;;;;;;;8.77;4.35;;;18.30;99.90;;;;;;5087772;28;20104;-54
2023/08/01 09:03:50;;;;;;;12.60;6.75;;;18.40;99.90;;;;;;5072368;28;20121;-53
2023/08/01 09:06:19;;;;;;;8.95;4.35;;;18.50;99.90;;;;;;5086688;28;20032;-53
2023/08/01 09:09:04;;;;;;;7.78;4.50;;;18.60;99.90;;;;;;5087635;28;20067;-55
2023/08/01 09:11:48;;;;;;;11.73;5.45;;;18.60;99.90;;;;;;5076103;28;20425;-53
2023/08/01 09:14:14;;;;;;;14.45;7.07;;;18.60;99.90;;;;;;5072145;28;20047;-54
2023/08/01 09:16:41;;;;;;;8.82;4.53;;;18.80;99.90;;;;;;5087956;28;20114;-51
2023/08/01 09:19:07;;;;;;;13.25;5.65;;;18.90;99.90;;;;;;5085197;28;20128;-55
2023/08/01 09:21:34;;;;;;;6.15;3.42;;;19.00;99.90;;;;;;5076927;28;20029;-54
2023/08/01 09:24:14;;;;;;;6.45;3.67;;;19.00;99.90;;;;;;5077764;28;20040;-55
2023/08/01 09:26:40;;;;;;;5.35;2.78;;;19.20;99.90;;;;;;5088017;28;20401;-51
2023/08/01 09:29:07;;;;;;;6.70;2.78;;;19.40;99.90;;;;;;5084902;28;20073;-55
2023/08/01 09:31:36;;;;;;;4.93;2.83;;;19.50;99.90;;;;;;5082365;28;20020;-55
2023/08/01 09:34:06;;;;;;;;;;;19.50;99.90;;;;;;5086420;28;20051;-55
2023/08/01 09:36:32;;;;;;;5.35;2.40;;;19.60;99.90;;;;;;5082504;28;20042;-55
2023/08/01 09:39:03;;;;;;;4.38;2.42;;;19.80;99.90;;;;;;5070609;28;20090;-55
2023/08/01 09:41:30;;;;;;;4.88;2.30;;;19.80;99.90;;;;;;5081936;28;20036;-53
2023/08/01 09:43:56;;;;;;;5.95;2.70;;;19.80;99.90;;;;;;5087521;28;20036;-54
2023/08/01 09:46:22;;;;;;;4.97;2.42;;;19.70;99.90;;;;;;5087938;28;20449;-55
2023/08/01 09:48:48;;;;;;;5.32;2.67;;;19.40;99.90;;;;;;5088219;28;20040;-55
2023/08/01 09:51:16;;;;;;;6.50;2.45;;;19.30;99.90;;;;;;5087918;28;20051;-54
2023/08/01 09:53:55;;;;;;;5.15;2.65;;;19.30;99.90;;;;;;5079504;28;20042;-54
2023/08/01 09:56:26;;;;;;;5.18;2.75;;;19.40;99.90;;;;;;5063629;28;20035;-51
2023/08/01 09:58:54;;;;;;;4.30;2.50;;;19.60;99.90;;;;;;5070873;28;20123;-54
2023/08/01 10:01:21;;;;;;;5.85;2.50;;;19.70;99.90;;;;;;5076221;28;20100;-53
2023/08/01 10:03:49;;;;;;;4.13;2.28;;;19.70;99.90;;;;;;5084289;28;20047;-55
2023/08/01 10:06:19;;;;;;;4.38;2.10;;;19.80;99.90;;;;;;5078400;28;20111;-55
2023/08/01 10:08:46;;;;;;;4.80;2.50;;;19.80;99.90;;;;;;5088112;28;20081;-53
2023/08/01 10:11:16;;;;;;;5.40;2.58;;;19.90;99.90;;;;;;5084462;28;20039;-54
2023/08/01 10:13:43;;;;;;;5.40;2.70;;;19.90;99.90;;;;;;5075319;28;20054;-53
2023/08/01 10:16:10;;;;;;;4.72;2.47;;;19.90;99.90;;;;;;5084801;28;20361;-51
2023/08/01 10:18:37;;;;;;;5.05;2.30;;;19.90;99.90;;;;;;5076447;28;20020;-52
2023/08/01 10:21:05;;;;;;;6.70;3.22;;;19.80;99.90;;;;;;5084167;28;20077;-53
2023/08/01 10:23:33;;;;;;;5.43;2.53;;;19.70;99.90;;;;;;5067922;28;20021;-54
2023/08/01 10:26:00;;;;;;;4.63;2.97;;;19.90;99.90;;;;;;5076995;28;20068;-52
2023/08/01 10:28:37;;;;;;;6.47;2.65;;;20.10;99.90;;;;;;5075101;28;20149;-53
2023/08/01 10:31:21;;;;;;;5.88;2.17;;;20.30;99.90;;;;;;5077547;28;20025;-52
2023/08/01 10:33:48;;;;;;;4.88;2.30;;;20.40;99.90;;;;;;5079833;28;20028;-54
2023/08/01 10:36:27;;;;;;;6.47;2.50;;;20.30;99.90;;;;;;5081219;28;20529;-55
2023/08/01 10:38:57;;;;;;;16.45;6.80;;;20.10;99.90;;;;;;5075884;28;20028;-54
2023/08/01 10:41:27;;;;;;;7.22;2.90;;;19.90;99.90;;;;;;5072955;28;20024;-52
2023/08/01 10:44:04;;;;;;;4.72;2.42;;;19.30;99.90;;;;;;5078254;28;20047;-55
2023/08/01 10:47:05;;;;;;;5.47;2.92;;;18.60;99.90;;;;;;5083364;28;20481;-55
2023/08/01 10:49:44;;;;;;;5.72;2.90;;;18.10;99.90;;;;;;5083418;28;20032;-55
2023/08/01 10:52:18;;;;;;;5.07;2.35;;;17.80;99.90;;;;;;5080226;28;20032;-53
2023/08/01 10:54:44;;;;;;;6.13;3.28;;;17.70;99.90;;;;;;5079099;28;20059;-54
2023/08/01 10:57:18;;;;;;;5.63;3.30;;;17.70;99.90;;;;;;5073046;28;20111;-55
2023/08/01 10:59:44;;;;;;;6.93;4.07;;;17.80;99.90;;;;;;5089824;28;20145;-50
2023/08/01 11:02:10;;;;;;;6.15;2.95;;;17.90;99.90;;;;;;5066330;28;20040;-51
2023/08/01 11:04:36;;;;;;;6.78;3.45;;;17.90;99.90;;;;;;5070399;28;20114;-53
2023/08/01 11:07:04;;;;;;;8.52;3.60;;;17.70;99.90;;;;;;5069363;28;20044;-52
2023/08/01 11:09:29;;;;;;;5.50;3.35;;;17.60;99.90;;;;;;5069863;28;20036;-54
2023/08/01 11:12:00;;;;;;;9.65;2.50;;;17.40;99.90;;;;;;5066502;28;20040;-49
2023/08/01 11:14:28;;;;;;;5.13;2.30;;;17.20;99.90;;;;;;5066669;28;20138;-53
2023/08/01 11:16:58;;;;;;;5.05;2.28;;;17.00;99.90;;;;;;5068339;28;20036;-52
2023/08/01 11:19:29;;;;;;;3.50;2.15;;;16.90;99.90;;;;;;5070599;28;20130;-49
2023/08/01 11:21:59;;;;;;;4.93;1.90;;;16.90;99.90;;;;;;5067921;28;20226;-53
2023/08/01 11:24:26;;;;;;;6.03;1.80;;;16.90;99.90;;;;;;5067885;28;20405;-50
2023/08/01 11:26:53;;;;;;;5.28;1.85;;;17.00;99.90;;;;;;5067822;28;20062;-52
2023/08/01 11:29:20;;;;;;;3.42;2.13;;;17.10;99.90;;;;;;5070152;28;20080;-50
2023/08/01 11:31:52;;;;;;;6.78;2.60;;;17.10;99.90;;;;;;5067290;28;20024;-52
2023/08/01 11:34:18;;;;;;;5.10;2.65;;;17.10;99.90;;;;;;5068211;28;20024;-50
2023/08/01 11:36:45;;;;;;;6.38;2.85;;;17.00;99.90;;;;;;5067682;28;20113;-51
2023/08/01 11:39:12;;;;;;;6.93;2.85;;;17.10;99.90;;;;;;5068915;28;20423;-52
2023/08/01 11:41:38;;;;;;;4.45;2.33;;;17.20;99.90;;;;;;5069205;28;20326;-51
2023/08/01 11:44:04;;;;;;;5.63;2.63;;;17.30;99.90;;;;;;5066474;28;20035;-53
2023/08/01 11:46:35;;;;;;;7.30;2.90;;;17.30;99.90;;;;;;5068491;28;20043;-51
2023/08/01 11:49:01;;;;;;;7.15;2.03;;;17.50;99.90;;;;;;5067978;28;20040;-50
2023/08/01 11:51:28;;;;;;;6.53;2.00;;;17.50;99.90;;;;;;5070357;28;20024;-50
2023/08/01 11:54:03;;;;;;;10.18;2.83;;;17.50;99.90;;;;;;5067055;28;20039;-50
2023/08/01 11:56:30;;;;;;;5.10;1.92;;;17.60;99.90;;;;;;5070044;28;20027;-52
2023/08/01 11:58:56;;;;;;;6.97;3.38;;;17.80;99.90;;;;;;5067506;28;20033;-50
2023/08/01 12:01:22;;;;;;;5.03;2.83;;;17.90;99.90;;;;;;5065796;28;20141;-51
2023/08/01 12:03:53;;;;;;;5.55;2.45;;;18.00;99.90;;;;;;5066276;28;20032;-51
2023/08/01 12:06:24;;;;;;;5.78;2.30;;;18.00;99.90;;;;;;5069856;28;20119;-51
2023/08/01 12:08:52;;;;;;;3.45;2.00;;;17.90;99.90;;;;;;5067944;28;20028;-53
2023/08/01 12:11:26;;;;;;;6.43;2.40;;;17.90;99.90;;;;;;5070344;28;20021;-50
2023/08/01 12:14:04;;;;;;;2.88;1.90;;;17.80;99.90;;;;;;5077906;28;20028;-52
2023/08/01 12:16:31;;;;;;;5.55;2.47;;;17.90;99.90;;;;;;5080955;28;20048;-51
2023/08/01 12:18:57;;;;;;;5.57;2.30;;;17.90;99.90;;;;;;5087681;28;20119;-53
2023/08/01 12:21:23;;;;;;;4.22;2.20;;;18.00;99.90;;;;;;5085775;28;20032;-55
2023/08/01 12:23:48;;;;;;;4.35;2.30;;;18.00;99.90;;;;;;5085806;28;20027;-55
2023/08/01 12:26:14;;;;;;;6.25;2.03;;;18.00;99.90;;;;;;5087366;28;20019;-55
2023/08/01 12:28:39;;;;;;;6.28;2.10;;;18.10;99.90;;;;;;5084543;28;20067;-55
2023/08/01 12:31:05;;;;;;;6.38;3.55;;;18.00;99.90;;;;;;5080366;28;20035;-55
2023/08/01 12:33:32;;;;;;;4.97;2.08;;;18.00;99.90;;;;;;5081177;28;20037;-53
2023/08/01 12:35:59;;;;;;;4.28;2.50;;;17.90;99.90;;;;;;5089031;28;20077;-54
2023/08/01 12:38:25;;;;;;;6.25;3.15;;;18.00;99.90;;;;;;5074144;28;20111;-55
2023/08/01 12:40:51;;;;;;;6.10;2.38;;;18.10;99.90;;;;;;5080968;28;20079;-53